createdAt,value
2023-03-31T00:01:37.764Z,70
2023-03-31T00:03:17.521Z,70
2023-03-31T00:04:57.296Z,70
2023-03-31T00:06:37.048Z,70
2023-03-31T00:08:16.846Z,70
2023-03-31T00:09:56.585Z,70
2023-03-31T00:11:36.356Z,70
2023-03-31T00:13:16.140Z,70
2023-03-31T00:14:55.888Z,70
2023-03-31T00:16:35.652Z,70
2023-03-31T00:18:15.434Z,70
2023-03-31T00:19:55.194Z,70
2023-03-31T00:21:34.973Z,70
2023-03-31T00:23:14.733Z,70
2023-03-31T00:24:54.504Z,70
2023-03-31T00:26:34.271Z,70
2023-03-31T00:28:14.070Z,70
2023-03-31T00:29:53.796Z,70
2023-03-31T00:31:33.564Z,70
2023-03-31T00:33:13.341Z,70
2023-03-31T00:34:53.111Z,70
2023-03-31T00:36:32.864Z,70
2023-03-31T00:38:12.633Z,70
2023-03-31T00:39:52.404Z,70
2023-03-31T00:41:32.219Z,70
2023-03-31T00:43:11.977Z,70
2023-03-31T00:44:51.705Z,70
2023-03-31T00:46:31.460Z,70
2023-03-31T00:48:11.252Z,69
2023-03-31T00:49:51.010Z,69
2023-03-31T00:51:30.765Z,69
2023-03-31T00:53:10.542Z,69
2023-03-31T00:54:50.326Z,69
2023-03-31T00:56:30.086Z,69
2023-03-31T00:58:09.859Z,69
2023-03-31T00:59:49.609Z,69
2023-03-31T01:01:29.378Z,69
2023-03-31T01:03:09.130Z,69
2023-03-31T01:04:48.904Z,69
2023-03-31T01:06:28.674Z,69
2023-03-31T01:08:08.425Z,69
2023-03-31T01:09:48.212Z,69
2023-03-31T01:11:27.980Z,69
2023-03-31T01:13:07.775Z,69
2023-03-31T01:14:47.508Z,69
2023-03-31T01:16:27.294Z,69
2023-03-31T01:18:07.057Z,69
2023-03-31T01:19:46.833Z,69
2023-03-31T01:21:26.584Z,69
2023-03-31T01:23:06.357Z,69
2023-03-31T01:24:46.122Z,69
2023-03-31T01:26:25.892Z,69
2023-03-31T01:28:05.647Z,69
2023-03-31T01:29:45.430Z,68
2023-03-31T01:31:25.183Z,68
2023-03-31T01:33:04.979Z,68
2023-03-31T01:34:44.729Z,68
2023-03-31T01:36:24.503Z,68
2023-03-31T01:38:04.256Z,68
2023-03-31T01:39:44.030Z,68
2023-03-31T01:41:23.805Z,68
2023-03-31T01:43:03.554Z,68
2023-03-31T01:44:43.330Z,68
2023-03-31T01:46:23.095Z,68
2023-03-31T01:48:02.900Z,68
2023-03-31T01:49:42.642Z,68
2023-03-31T01:51:22.411Z,68
2023-03-31T01:53:02.173Z,68
2023-03-31T01:54:41.921Z,68
2023-03-31T01:56:21.722Z,68
2023-03-31T01:58:01.463Z,68
2023-03-31T01:59:41.221Z,68
2023-03-31T02:01:21.006Z,68
2023-03-31T02:03:00.782Z,68
2023-03-31T02:04:40.544Z,67
2023-03-31T02:06:20.311Z,68
2023-03-31T02:08:00.076Z,67
2023-03-31T02:09:39.850Z,67
2023-03-31T02:11:19.609Z,67
2023-03-31T02:12:59.426Z,67
2023-03-31T02:14:39.137Z,67
2023-03-31T02:16:18.924Z,67
2023-03-31T02:17:58.677Z,67
2023-03-31T02:19:38.448Z,67
2023-03-31T02:21:18.203Z,67
2023-03-31T02:22:57.992Z,67
2023-03-31T02:24:37.747Z,67
2023-03-31T02:26:17.551Z,67
2023-03-31T02:27:57.277Z,67
2023-03-31T02:29:37.053Z,67
2023-03-31T02:31:16.816Z,66
2023-03-31T02:32:56.580Z,67
2023-03-31T02:34:36.338Z,67
2023-03-31T02:36:16.118Z,67
2023-03-31T02:37:55.946Z,67
2023-03-31T02:39:35.648Z,67
2023-03-31T02:41:15.415Z,66
2023-03-31T02:42:55.190Z,66
2023-03-31T02:44:34.954Z,66
2023-03-31T02:46:14.730Z,66
2023-03-31T02:47:54.478Z,66
2023-03-31T02:49:34.257Z,66
2023-03-31T02:51:14.019Z,66
2023-03-31T02:52:53.786Z,66
2023-03-31T02:54:33.566Z,66
2023-03-31T02:56:13.342Z,66
2023-03-31T02:57:53.104Z,66
2023-03-31T02:59:32.863Z,66
2023-03-31T03:01:12.631Z,66
2023-03-31T03:02:52.406Z,66
2023-03-31T03:04:32.186Z,66
2023-03-31T03:06:11.924Z,66
2023-03-31T03:07:51.732Z,66
2023-03-31T03:09:31.464Z,66
2023-03-31T03:11:11.233Z,66
2023-03-31T03:12:50.997Z,66
2023-03-31T03:14:30.771Z,66
2023-03-31T03:16:10.532Z,66
2023-03-31T03:17:50.325Z,66
2023-03-31T03:19:30.091Z,66
2023-03-31T03:21:09.877Z,66
2023-03-31T03:22:49.608Z,65
2023-03-31T03:24:29.384Z,65
2023-03-31T03:26:09.147Z,65
2023-03-31T03:27:48.911Z,65
2023-03-31T03:29:28.672Z,65
2023-03-31T03:31:08.440Z,65
2023-03-31T03:32:48.213Z,65
2023-03-31T03:34:27.971Z,65
2023-03-31T03:36:07.740Z,65
2023-03-31T03:37:47.516Z,65
2023-03-31T03:39:27.302Z,65
2023-03-31T03:41:07.045Z,65
2023-03-31T03:42:46.861Z,65
2023-03-31T03:44:26.593Z,65
2023-03-31T03:46:06.348Z,65
2023-03-31T03:47:46.110Z,65
2023-03-31T03:49:25.884Z,65
2023-03-31T03:51:05.642Z,65
2023-03-31T03:52:45.458Z,65
2023-03-31T03:54:25.193Z,65
2023-03-31T03:56:04.986Z,65
2023-03-31T03:57:44.729Z,65
2023-03-31T03:59:24.484Z,65
2023-03-31T04:01:04.256Z,65
2023-03-31T04:02:44.024Z,65
2023-03-31T04:04:23.788Z,65
2023-03-31T04:06:03.545Z,65
2023-03-31T04:07:43.310Z,65
2023-03-31T04:09:23.112Z,65
2023-03-31T04:11:02.879Z,65
2023-03-31T04:12:42.596Z,65
2023-03-31T04:14:22.386Z,65
2023-03-31T04:16:02.164Z,65
2023-03-31T04:17:41.929Z,65
2023-03-31T04:19:21.694Z,65
2023-03-31T04:21:01.453Z,65
2023-03-31T04:22:41.216Z,65
2023-03-31T04:24:20.966Z,65
2023-03-31T04:26:00.813Z,64
2023-03-31T04:27:40.513Z,64
2023-03-31T04:29:20.278Z,64
2023-03-31T04:31:00.044Z,64
2023-03-31T04:32:39.817Z,64
2023-03-31T04:34:19.590Z,64
2023-03-31T04:35:59.352Z,64
2023-03-31T04:37:39.122Z,63
2023-03-31T04:39:18.899Z,64
2023-03-31T04:40:58.645Z,64
2023-03-31T04:42:38.417Z,64
2023-03-31T04:44:18.186Z,64
2023-03-31T04:45:57.954Z,64
2023-03-31T04:47:37.729Z,64
2023-03-31T04:49:17.490Z,64
2023-03-31T04:50:57.256Z,64
2023-03-31T04:52:37.089Z,63
2023-03-31T04:54:16.790Z,63
2023-03-31T04:55:56.562Z,62
2023-03-31T04:57:36.314Z,57
2023-03-31T04:59:16.151Z,51
2023-03-31T05:00:55.914Z,45
2023-03-31T05:02:35.627Z,39
2023-03-31T05:04:15.414Z,33
2023-03-31T05:05:55.201Z,30
2023-03-31T05:07:34.957Z,30
2023-03-31T05:09:14.700Z,31
2023-03-31T05:10:54.475Z,31
2023-03-31T05:12:34.261Z,32
2023-03-31T05:14:14.024Z,33
2023-03-31T05:15:53.784Z,33
2023-03-31T05:17:33.557Z,33
2023-03-31T05:19:13.329Z,34
2023-03-31T05:20:53.130Z,34
2023-03-31T05:22:32.878Z,34
2023-03-31T05:24:12.654Z,35
2023-03-31T05:25:52.450Z,37
2023-03-31T05:27:32.182Z,39
2023-03-31T05:29:11.977Z,38
2023-03-31T05:30:51.778Z,40
2023-03-31T05:32:31.506Z,41
2023-03-31T05:34:11.313Z,42
2023-03-31T05:35:51.037Z,43
2023-03-31T05:37:30.802Z,43
2023-03-31T05:39:10.582Z,44
2023-03-31T05:40:50.351Z,45
2023-03-31T05:42:30.145Z,46
2023-03-31T05:44:09.902Z,47
2023-03-31T05:45:49.668Z,48
2023-03-31T05:47:29.426Z,50
2023-03-31T05:49:09.207Z,51
2023-03-31T05:50:48.995Z,53
2023-03-31T05:52:28.734Z,56
2023-03-31T05:54:08.520Z,58
2023-03-31T05:55:48.281Z,59
2023-03-31T05:57:28.062Z,60
2023-03-31T05:59:07.825Z,61
2023-03-31T06:00:47.815Z,62
2023-03-31T06:02:27.461Z,63
2023-03-31T06:04:07.156Z,63
2023-03-31T06:05:46.909Z,64
2023-03-31T06:07:26.681Z,63
2023-03-31T06:09:06.513Z,63
2023-03-31T06:10:46.220Z,63
2023-03-31T06:12:26.011Z,62
2023-03-31T06:14:05.770Z,62
2023-03-31T06:15:45.532Z,62
2023-03-31T06:17:25.300Z,62
2023-03-31T06:19:05.059Z,63
2023-03-31T06:20:44.901Z,66
2023-03-31T06:22:24.774Z,68
2023-03-31T06:24:04.418Z,71
2023-03-31T06:25:44.260Z,76
2023-03-31T06:27:23.943Z,80
2023-03-31T06:29:03.710Z,86
2023-03-31T06:30:43.565Z,91
2023-03-31T06:32:23.324Z,91
2023-03-31T06:34:03.016Z,91
2023-03-31T06:35:42.771Z,91
2023-03-31T06:37:22.538Z,92
2023-03-31T06:39:02.440Z,91
2023-03-31T06:40:42.079Z,92
2023-03-31T06:42:21.924Z,92
2023-03-31T06:44:01.627Z,92
2023-03-31T06:45:41.416Z,92
2023-03-31T06:47:21.165Z,92
2023-03-31T06:49:00.948Z,92
2023-03-31T06:50:40.692Z,92
2023-03-31T06:52:20.486Z,92
2023-03-31T06:54:00.241Z,93
2023-03-31T06:55:40.054Z,93
2023-03-31T06:57:19.848Z,93
2023-03-31T06:58:59.626Z,93
2023-03-31T07:00:39.390Z,92
2023-03-31T07:02:19.100Z,93
2023-03-31T07:03:58.860Z,93
2023-03-31T07:05:38.638Z,93
2023-03-31T07:07:18.417Z,93
2023-03-31T07:08:58.234Z,93
2023-03-31T07:10:38.016Z,93
2023-03-31T07:12:17.711Z,94
2023-03-31T07:13:57.483Z,94
2023-03-31T07:15:37.245Z,94
2023-03-31T07:17:17.034Z,94
2023-03-31T07:18:56.873Z,94
2023-03-31T07:20:36.569Z,94
2023-03-31T07:22:16.340Z,94
2023-03-31T07:23:56.117Z,94
2023-03-31T07:25:35.876Z,94
2023-03-31T07:27:15.668Z,94
2023-03-31T07:28:55.409Z,94
2023-03-31T07:30:35.190Z,94
2023-03-31T07:32:14.981Z,95
2023-03-31T07:33:54.757Z,95
2023-03-31T07:35:34.501Z,95
2023-03-31T07:37:14.266Z,95
2023-03-31T07:38:54.071Z,95
2023-03-31T07:40:33.801Z,95
2023-03-31T07:42:13.577Z,95
2023-03-31T07:43:53.395Z,95
2023-03-31T07:45:33.158Z,95
2023-03-31T07:47:12.920Z,95
2023-03-31T07:48:52.689Z,95
2023-03-31T07:50:32.429Z,95
2023-03-31T07:52:12.206Z,96
2023-03-31T07:53:51.981Z,96
2023-03-31T07:55:31.803Z,96
2023-03-31T07:57:11.568Z,96
2023-03-31T07:58:51.372Z,96
2023-03-31T08:00:31.174Z,96
2023-03-31T08:02:10.829Z,96
2023-03-31T08:03:50.591Z,96
2023-03-31T08:05:30.378Z,96
2023-03-31T08:07:10.138Z,97
2023-03-31T08:08:49.916Z,97
2023-03-31T08:10:29.685Z,97
2023-03-31T08:12:09.444Z,97
2023-03-31T08:13:49.345Z,97
2023-03-31T08:15:29.006Z,97
2023-03-31T08:17:08.764Z,97
2023-03-31T08:18:48.535Z,97
2023-03-31T08:20:28.302Z,98
2023-03-31T08:22:08.081Z,97
2023-03-31T08:23:47.838Z,97
2023-03-31T08:25:27.619Z,97
2023-03-31T08:27:07.375Z,98
2023-03-31T08:28:47.149Z,98
2023-03-31T08:30:27.029Z,98
2023-03-31T08:32:06.704Z,98
2023-03-31T08:33:46.460Z,98
2023-03-31T08:35:26.224Z,98
2023-03-31T08:37:05.999Z,98
2023-03-31T08:38:45.760Z,98
2023-03-31T08:40:25.592Z,98
2023-03-31T08:42:05.322Z,98
2023-03-31T08:43:45.083Z,99
2023-03-31T08:45:24.879Z,99
2023-03-31T08:47:04.612Z,99
2023-03-31T08:48:44.384Z,99
2023-03-31T08:50:24.168Z,99
2023-03-31T08:52:03.936Z,99
2023-03-31T08:53:43.727Z,99
2023-03-31T08:55:23.555Z,99
2023-03-31T08:57:03.253Z,99
2023-03-31T08:58:43.031Z,99
2023-03-31T09:00:22.804Z,100
2023-03-31T09:02:02.570Z,100
2023-03-31T09:03:42.342Z,99
2023-03-31T09:05:22.113Z,100
2023-03-31T09:07:01.918Z,100
2023-03-31T09:08:41.652Z,100
2023-03-31T09:10:21.442Z,100
2023-03-31T09:12:01.240Z,100
2023-03-31T09:13:40.967Z,100
2023-03-31T09:15:20.719Z,100
2023-03-31T09:17:00.543Z,100
2023-03-31T09:18:40.415Z,100
2023-03-31T09:20:20.036Z,100
2023-03-31T09:21:59.820Z,100
2023-03-31T09:23:39.580Z,100
2023-03-31T09:25:19.349Z,100
2023-03-31T09:26:59.125Z,100
2023-03-31T09:28:38.929Z,100
2023-03-31T09:30:18.726Z,100
2023-03-31T09:31:58.477Z,100
2023-03-31T09:33:38.228Z,100
2023-03-31T09:35:17.960Z,100
2023-03-31T09:36:57.726Z,100
2023-03-31T09:38:37.532Z,100
2023-03-31T09:40:17.344Z,100
2023-03-31T09:41:57.088Z,100
2023-03-31T09:43:36.810Z,100
2023-03-31T09:45:16.593Z,100
2023-03-31T09:46:56.343Z,100
2023-03-31T09:48:36.116Z,100
2023-03-31T09:50:15.881Z,100
2023-03-31T09:51:55.654Z,100
2023-03-31T09:53:35.439Z,100
2023-03-31T09:55:15.198Z,100
2023-03-31T09:56:54.968Z,100
2023-03-31T09:58:34.747Z,100
2023-03-31T10:00:14.529Z,100
2023-03-31T10:01:54.287Z,100
2023-03-31T10:03:34.043Z,100
2023-03-31T10:05:13.817Z,100
2023-03-31T10:06:53.588Z,100
2023-03-31T10:08:33.379Z,100
2023-03-31T10:10:13.134Z,100
2023-03-31T10:11:52.977Z,100
2023-03-31T10:13:32.657Z,100
2023-03-31T10:15:12.449Z,100
2023-03-31T10:16:52.197Z,100
2023-03-31T10:18:32.059Z,100
2023-03-31T10:20:11.762Z,100
2023-03-31T10:21:51.547Z,100
2023-03-31T10:23:31.305Z,100
2023-03-31T10:25:11.159Z,100
2023-03-31T10:26:50.848Z,100
2023-03-31T10:28:30.605Z,100
2023-03-31T10:30:10.394Z,100
2023-03-31T10:31:50.150Z,100
2023-03-31T10:33:29.907Z,100
2023-03-31T10:35:09.720Z,100
2023-03-31T10:36:49.488Z,100
2023-03-31T10:38:29.240Z,100
2023-03-31T10:40:09.073Z,100
2023-03-31T10:41:48.761Z,100
2023-03-31T10:43:28.592Z,100
2023-03-31T10:45:08.290Z,100
2023-03-31T10:46:48.077Z,100
2023-03-31T10:48:27.845Z,100
2023-03-31T10:50:07.605Z,100
2023-03-31T10:51:47.426Z,100
2023-03-31T10:53:27.163Z,100
2023-03-31T10:55:06.925Z,100
2023-03-31T10:56:46.743Z,100
2023-03-31T10:58:26.466Z,100
2023-03-31T11:00:06.246Z,100
2023-03-31T11:01:46.021Z,100
2023-03-31T11:03:25.769Z,100
2023-03-31T11:05:05.549Z,100
2023-03-31T11:06:45.315Z,100
2023-03-31T11:08:25.110Z,100
2023-03-31T11:10:04.850Z,100
2023-03-31T11:11:44.652Z,100
2023-03-31T11:13:24.405Z,100
2023-03-31T11:15:04.202Z,100
2023-03-31T11:16:43.970Z,100
2023-03-31T11:18:23.721Z,100
2023-03-31T11:20:03.498Z,100
2023-03-31T11:21:43.251Z,100
2023-03-31T11:23:23.018Z,100
2023-03-31T11:25:02.818Z,100
2023-03-31T11:26:42.554Z,100
2023-03-31T11:28:22.398Z,100
2023-03-31T11:30:02.104Z,100
2023-03-31T11:31:41.865Z,100
2023-03-31T11:33:21.650Z,100
2023-03-31T11:35:01.449Z,100
2023-03-31T11:36:41.185Z,100
2023-03-31T11:38:20.954Z,100
2023-03-31T11:40:00.718Z,100
2023-03-31T11:41:40.496Z,100
2023-03-31T11:43:20.278Z,100
2023-03-31T11:45:00.049Z,100
2023-03-31T11:46:39.810Z,100
2023-03-31T11:48:19.572Z,100
2023-03-31T11:49:59.337Z,100
2023-03-31T11:51:39.203Z,100
2023-03-31T11:53:18.898Z,100
2023-03-31T11:54:58.669Z,100
2023-03-31T11:56:38.426Z,100
2023-03-31T11:58:18.203Z,100
2023-03-31T11:59:58.002Z,100
2023-03-31T12:01:37.736Z,100
2023-03-31T12:03:17.519Z,100
2023-03-31T12:04:57.312Z,100
2023-03-31T12:06:37.055Z,100
2023-03-31T12:08:16.823Z,100
2023-03-31T12:09:56.591Z,100
2023-03-31T12:11:36.358Z,100
2023-03-31T12:13:16.124Z,100
2023-03-31T12:14:55.901Z,100
2023-03-31T12:16:35.690Z,100
2023-03-31T12:18:15.452Z,100
2023-03-31T12:19:55.220Z,100
2023-03-31T12:21:34.987Z,100
2023-03-31T12:23:14.762Z,100
2023-03-31T12:24:54.532Z,100
2023-03-31T12:26:34.304Z,100
2023-03-31T12:28:14.065Z,100
2023-03-31T12:29:53.840Z,100
2023-03-31T12:31:33.613Z,100
2023-03-31T12:33:13.381Z,100
2023-03-31T12:34:53.157Z,100
2023-03-31T12:36:32.947Z,100
2023-03-31T12:38:12.701Z,100
2023-03-31T12:39:52.476Z,100
2023-03-31T12:41:32.242Z,100
2023-03-31T12:43:12.006Z,100
2023-03-31T12:44:51.779Z,100
2023-03-31T12:46:31.561Z,100
2023-03-31T12:48:11.323Z,100
2023-03-31T12:49:51.081Z,100
2023-03-31T12:51:30.876Z,100
2023-03-31T12:53:10.645Z,100
2023-03-31T12:54:50.407Z,100
2023-03-31T12:56:30.166Z,100
2023-03-31T12:58:09.941Z,100
2023-03-31T12:59:49.744Z,100
2023-03-31T13:01:29.506Z,100
2023-03-31T13:03:09.241Z,100
2023-03-31T13:04:49.033Z,100
2023-03-31T13:06:28.792Z,100
2023-03-31T13:08:08.565Z,100
2023-03-31T13:09:48.541Z,100
2023-03-31T13:11:28.275Z,100
2023-03-31T13:13:08.051Z,100
2023-03-31T13:14:47.933Z,100
2023-03-31T13:16:27.416Z,100
2023-03-31T13:18:07.180Z,100
2023-03-31T13:19:47.294Z,100
2023-03-31T13:21:27.015Z,100
2023-03-31T13:23:06.687Z,100
2023-03-31T13:24:46.410Z,100
2023-03-31T13:26:26.197Z,100
2023-03-31T13:28:05.955Z,100
2023-03-31T13:29:45.681Z,100
2023-03-31T13:31:25.401Z,100
2023-03-31T13:33:05.316Z,100
2023-03-31T13:34:44.890Z,100
2023-03-31T13:36:24.683Z,100
2023-03-31T13:38:04.457Z,100
2023-03-31T13:39:44.368Z,100
2023-03-31T13:41:23.975Z,100
2023-03-31T13:43:03.894Z,100
2023-03-31T13:44:43.509Z,100
2023-03-31T13:46:23.425Z,100
2023-03-31T13:48:03.215Z,100
2023-03-31T13:49:42.815Z,100
2023-03-31T13:51:22.731Z,100
2023-03-31T13:53:02.509Z,100
2023-03-31T13:54:42.151Z,100
2023-03-31T13:56:22.062Z,100
2023-03-31T13:58:01.821Z,100
2023-03-31T13:59:41.448Z,100
2023-03-31T14:01:21.426Z,100
2023-03-31T14:03:01.085Z,100
2023-03-31T14:04:40.909Z,100
2023-03-31T14:06:20.628Z,100
2023-03-31T14:08:00.492Z,100
2023-03-31T14:09:40.204Z,100
2023-03-31T14:11:19.910Z,100
2023-03-31T14:12:59.755Z,100
2023-03-31T14:14:39.595Z,100
2023-03-31T14:16:19.302Z,100
2023-03-31T14:17:59.107Z,100
2023-03-31T14:19:38.859Z,100
2023-03-31T14:21:18.602Z,100
2023-03-31T14:22:58.478Z,100
2023-03-31T14:24:38.004Z,100
2023-03-31T14:26:17.951Z,100
2023-03-31T14:27:57.766Z,100
2023-03-31T14:29:37.500Z,100
2023-03-31T14:31:17.241Z,100
2023-03-31T14:32:57.060Z,100
2023-03-31T14:34:36.797Z,100
2023-03-31T14:36:16.594Z,100
2023-03-31T14:37:56.387Z,100
2023-03-31T14:39:36.101Z,100
2023-03-31T14:41:15.859Z,100
2023-03-31T14:42:55.637Z,100
2023-03-31T14:44:35.420Z,100
2023-03-31T14:46:15.012Z,100
2023-03-31T14:47:54.986Z,100
2023-03-31T14:49:34.552Z,100
2023-03-31T14:51:14.485Z,100
2023-03-31T14:52:54.112Z,100
2023-03-31T14:54:34.153Z,100
2023-03-31T14:56:13.839Z,100
2023-03-31T14:57:53.486Z,100
2023-03-31T14:59:33.370Z,100
2023-03-31T15:01:13.109Z,100
2023-03-31T15:02:52.726Z,100
2023-03-31T15:04:32.625Z,100
2023-03-31T15:06:12.407Z,100
2023-03-31T15:07:52.182Z,100
2023-03-31T15:09:31.954Z,100
2023-03-31T15:11:11.771Z,100
2023-03-31T15:12:51.506Z,100
2023-03-31T15:14:31.279Z,100
2023-03-31T15:16:11.053Z,100
2023-03-31T15:17:50.765Z,100
2023-03-31T15:19:30.593Z,100
2023-03-31T15:21:10.425Z,100
2023-03-31T15:22:50.161Z,100
2023-03-31T15:24:29.752Z,100
2023-03-31T15:26:09.676Z,100
2023-03-31T15:27:49.490Z,100
2023-03-31T15:29:29.181Z,100
2023-03-31T15:31:08.993Z,100
2023-03-31T15:32:48.588Z,100
2023-03-31T15:34:28.350Z,100
2023-03-31T15:36:08.324Z,100
2023-03-31T15:37:48.065Z,100
2023-03-31T15:39:27.896Z,100
2023-03-31T15:41:07.680Z,100
2023-03-31T15:42:47.362Z,100
2023-03-31T15:44:27.068Z,100
2023-03-31T15:46:06.855Z,100
2023-03-31T15:47:46.672Z,100
2023-03-31T15:49:26.445Z,100
2023-03-31T15:51:06.210Z,100
2023-03-31T15:52:46.027Z,100
2023-03-31T15:54:25.824Z,100
2023-03-31T15:56:05.617Z,100
2023-03-31T15:57:45.394Z,100
2023-03-31T15:59:25.121Z,100
2023-03-31T16:01:04.782Z,100
2023-03-31T16:02:44.627Z,100
2023-03-31T16:04:24.728Z,100
2023-03-31T16:06:04.036Z,100
2023-03-31T16:07:43.757Z,100
2023-03-31T16:09:23.862Z,100
2023-03-31T16:11:03.631Z,100
2023-03-31T16:12:43.497Z,100
2023-03-31T16:14:23.254Z,100
2023-03-31T16:16:02.811Z,100
2023-03-31T16:17:42.465Z,100
2023-03-31T16:19:22.418Z,100
2023-03-31T16:21:01.980Z,100
2023-03-31T16:22:41.941Z,100
2023-03-31T16:24:21.694Z,100
2023-03-31T16:26:01.372Z,100
2023-03-31T16:27:41.196Z,100
2023-03-31T16:29:20.770Z,100
2023-03-31T16:31:00.808Z,100
2023-03-31T16:32:40.456Z,100
2023-03-31T16:34:20.329Z,100
2023-03-31T16:35:59.858Z,100
2023-03-31T16:37:39.783Z,100
2023-03-31T16:39:19.566Z,100
2023-03-31T16:40:59.350Z,100
2023-03-31T16:42:38.929Z,100
2023-03-31T16:44:18.815Z,100
2023-03-31T16:45:58.517Z,100
2023-03-31T16:47:38.453Z,100
2023-03-31T16:49:18.292Z,100
2023-03-31T16:50:58.048Z,100
2023-03-31T16:52:37.760Z,100
2023-03-31T16:54:17.478Z,100
2023-03-31T16:55:57.097Z,100
2023-03-31T16:57:36.952Z,100
2023-03-31T16:59:16.816Z,100
2023-03-31T17:00:56.569Z,100
2023-03-31T17:02:36.222Z,100
2023-03-31T17:04:15.957Z,100
2023-03-31T17:05:55.791Z,100
2023-03-31T17:07:35.653Z,100
2023-03-31T17:09:15.266Z,100
2023-03-31T17:10:55.050Z,100
2023-03-31T17:12:34.968Z,100
2023-03-31T17:14:14.854Z,100
2023-03-31T17:15:54.462Z,100
2023-03-31T17:17:34.268Z,100
2023-03-31T17:19:14.030Z,100
2023-03-31T17:20:53.755Z,100
2023-03-31T17:22:33.457Z,100
2023-03-31T17:24:13.361Z,100
2023-03-31T17:25:53.240Z,100
2023-03-31T17:27:32.823Z,100
2023-03-31T17:29:12.593Z,100
2023-03-31T17:30:52.516Z,100
2023-03-31T17:32:32.202Z,100
2023-03-31T17:34:11.968Z,100
2023-03-31T17:35:51.555Z,100
2023-03-31T17:37:31.503Z,100
2023-03-31T17:39:11.100Z,100
2023-03-31T17:40:51.115Z,100
2023-03-31T17:42:30.900Z,100
2023-03-31T17:44:10.433Z,100
2023-03-31T17:45:50.433Z,100
2023-03-31T17:47:30.034Z,98
2023-03-31T17:49:09.703Z,96
2023-03-31T17:50:49.760Z,95
2023-03-31T17:52:29.465Z,94
2023-03-31T17:54:09.005Z,94
2023-03-31T17:55:48.938Z,93
2023-03-31T17:57:28.742Z,93
2023-03-31T17:59:08.537Z,92
2023-03-31T18:00:48.327Z,92
2023-03-31T18:02:28.161Z,91
2023-03-31T18:04:07.898Z,91
2023-03-31T18:05:47.607Z,90
2023-03-31T18:07:27.136Z,90
2023-03-31T18:09:07.145Z,90
2023-03-31T18:10:46.896Z,89
2023-03-31T18:12:26.491Z,89
2023-03-31T18:14:06.228Z,88
2023-03-31T18:15:46.157Z,88
2023-03-31T18:17:25.950Z,87
2023-03-31T18:19:05.620Z,87
2023-03-31T18:20:45.448Z,87
2023-03-31T18:22:25.032Z,86
2023-03-31T18:24:04.989Z,86
2023-03-31T18:25:44.564Z,86
2023-03-31T18:27:24.573Z,85
2023-03-31T18:29:04.378Z,85
2023-03-31T18:30:44.172Z,85
2023-03-31T18:32:23.645Z,84
2023-03-31T18:34:03.544Z,84
2023-03-31T18:35:43.391Z,84
2023-03-31T18:37:23.180Z,84
2023-03-31T18:39:02.913Z,83
2023-03-31T18:40:42.626Z,83
2023-03-31T18:42:22.430Z,83
2023-03-31T18:44:02.008Z,83
2023-03-31T18:45:41.988Z,82
2023-03-31T18:47:21.580Z,82
2023-03-31T18:49:01.701Z,82
2023-03-31T18:50:41.085Z,82
2023-03-31T18:52:20.856Z,82
2023-03-31T18:54:00.812Z,81
2023-03-31T18:55:40.573Z,81
2023-03-31T18:57:20.333Z,81
2023-03-31T18:58:59.925Z,80
2023-03-31T19:00:39.696Z,81
2023-03-31T19:02:19.645Z,80
2023-03-31T19:03:59.232Z,80
2023-03-31T19:05:39.006Z,80
2023-03-31T19:07:18.946Z,80
2023-03-31T19:08:58.768Z,80
2023-03-31T19:10:38.323Z,80
2023-03-31T19:12:18.210Z,80
2023-03-31T19:13:57.980Z,79
2023-03-31T19:15:37.758Z,79
2023-03-31T19:17:17.565Z,79
2023-03-31T19:18:57.146Z,79
2023-03-31T19:20:37.101Z,79
2023-03-31T19:22:16.674Z,79
2023-03-31T19:23:56.596Z,79
2023-03-31T19:25:36.338Z,79
2023-03-31T19:27:15.978Z,79
2023-03-31T19:28:55.910Z,78
2023-03-31T19:30:35.512Z,78
2023-03-31T19:32:15.393Z,78
2023-03-31T19:33:55.231Z,78
2023-03-31T19:35:34.818Z,78
2023-03-31T19:37:14.622Z,78
2023-03-31T19:38:54.345Z,78
2023-03-31T19:40:34.325Z,78
2023-03-31T19:42:14.029Z,78
2023-03-31T19:43:53.658Z,77
2023-03-31T19:45:33.423Z,77
2023-03-31T19:47:13.176Z,77
2023-03-31T19:48:52.968Z,77
2023-03-31T19:50:32.752Z,77
2023-03-31T19:52:12.630Z,77
2023-03-31T19:53:52.466Z,77
2023-03-31T19:55:32.020Z,77
2023-03-31T19:57:11.991Z,77
2023-03-31T19:58:51.726Z,77
2023-03-31T20:00:31.478Z,77
2023-03-31T20:02:11.168Z,77
2023-03-31T20:03:50.872Z,77
2023-03-31T20:05:30.628Z,77
2023-03-31T20:07:10.396Z,77
2023-03-31T20:08:50.324Z,76
2023-03-31T20:10:29.946Z,76
2023-03-31T20:12:09.699Z,76
2023-03-31T20:13:49.461Z,76
2023-03-31T20:15:29.226Z,76
2023-03-31T20:17:09.156Z,76
2023-03-31T20:18:48.937Z,76
2023-03-31T20:20:28.703Z,76
2023-03-31T20:22:08.464Z,76
2023-03-31T20:23:48.067Z,76
2023-03-31T20:25:27.826Z,76
2023-03-31T20:27:07.801Z,76
2023-03-31T20:28:47.492Z,76
2023-03-31T20:30:27.320Z,76
2023-03-31T20:32:07.055Z,76
2023-03-31T20:33:46.665Z,76
2023-03-31T20:35:26.437Z,76
2023-03-31T20:37:06.385Z,75
2023-03-31T20:38:45.972Z,75
2023-03-31T20:40:25.753Z,75
2023-03-31T20:42:05.514Z,75
2023-03-31T20:43:45.418Z,75
2023-03-31T20:45:25.028Z,75
2023-03-31T20:47:04.897Z,75
2023-03-31T20:48:44.784Z,75
2023-03-31T20:50:24.496Z,75
2023-03-31T20:52:04.286Z,75
2023-03-31T20:53:44.051Z,75
2023-03-31T20:55:23.636Z,75
2023-03-31T20:57:03.570Z,75
2023-03-31T20:58:43.188Z,75
2023-03-31T21:00:23.102Z,75
2023-03-31T21:02:02.806Z,75
2023-03-31T21:03:42.481Z,75
2023-03-31T21:05:22.325Z,75
2023-03-31T21:07:02.013Z,75
2023-03-31T21:08:41.887Z,75
2023-03-31T21:10:21.586Z,75
2023-03-31T21:12:01.526Z,75
2023-03-31T21:13:41.249Z,75
2023-03-31T21:15:20.849Z,75
2023-03-31T21:17:00.626Z,75
2023-03-31T21:18:40.608Z,75
2023-03-31T21:20:20.206Z,75
2023-03-31T21:22:00.103Z,75
2023-03-31T21:23:39.978Z,74
2023-03-31T21:25:19.463Z,75
2023-03-31T21:26:59.229Z,74
2023-03-31T21:28:39.186Z,74
2023-03-31T21:30:18.901Z,74
2023-03-31T21:31:58.525Z,74
2023-03-31T21:33:38.319Z,74
2023-03-31T21:35:18.060Z,74
2023-03-31T21:36:58.065Z,74
2023-03-31T21:38:37.778Z,74
2023-03-31T21:40:17.368Z,74
2023-03-31T21:41:57.122Z,74
2023-03-31T21:43:36.907Z,74
2023-03-31T21:45:16.666Z,74
2023-03-31T21:46:56.481Z,74
2023-03-31T21:48:36.210Z,74
2023-03-31T21:50:16.081Z,74
2023-03-31T21:51:55.907Z,74
2023-03-31T21:53:35.554Z,74
2023-03-31T21:55:15.364Z,74
2023-03-31T21:56:55.217Z,74
2023-03-31T21:58:34.993Z,74
2023-03-31T22:00:14.660Z,74
2023-03-31T22:01:54.358Z,74
2023-03-31T22:03:34.126Z,74
2023-03-31T22:05:13.875Z,74
2023-03-31T22:06:53.690Z,74
2023-03-31T22:08:33.560Z,73
2023-03-31T22:10:13.195Z,73
2023-03-31T22:11:53.001Z,74
2023-03-31T22:13:32.916Z,73
2023-03-31T22:15:12.491Z,73
2023-03-31T22:16:52.474Z,73
2023-03-31T22:18:32.175Z,73
2023-03-31T22:20:11.793Z,73
2023-03-31T22:21:51.780Z,73
2023-03-31T22:23:31.501Z,73
2023-03-31T22:25:11.184Z,73
2023-03-31T22:26:50.856Z,73
2023-03-31T22:28:30.662Z,73
2023-03-31T22:30:10.545Z,73
2023-03-31T22:31:50.197Z,73
2023-03-31T22:33:29.932Z,73
2023-03-31T22:35:09.705Z,73
2023-03-31T22:36:49.594Z,73
2023-03-31T22:38:29.459Z,73
2023-03-31T22:40:09.093Z,73
2023-03-31T22:41:48.944Z,73
2023-03-31T22:43:28.581Z,73
2023-03-31T22:45:08.441Z,73
2023-03-31T22:46:48.196Z,72
2023-03-31T22:48:27.829Z,73
2023-03-31T22:50:07.726Z,73
2023-03-31T22:51:47.406Z,72
2023-03-31T22:53:27.201Z,72
2023-03-31T22:55:07.017Z,72
2023-03-31T22:56:46.842Z,72
2023-03-31T22:58:26.433Z,72
2023-03-31T23:00:06.188Z,72
2023-03-31T23:01:46.118Z,72
2023-03-31T23:03:25.741Z,72
2023-03-31T23:05:05.659Z,72
2023-03-31T23:06:45.433Z,72
2023-03-31T23:08:25.209Z,72
2023-03-31T23:10:04.805Z,72
2023-03-31T23:11:44.581Z,72
2023-03-31T23:13:24.435Z,72
2023-03-31T23:15:04.111Z,72
2023-03-31T23:16:43.869Z,72
2023-03-31T23:18:23.804Z,72
2023-03-31T23:20:03.542Z,72
2023-03-31T23:21:43.361Z,72
2023-03-31T23:23:23.128Z,72
2023-03-31T23:25:02.784Z,72